• Join FlightAware (Why Join?)
  • Login
  • US Flag 
02:44PM EDT


 

Airport Tracker/Info


-or-


 

Live Flight TrackerFlight Track Log ✈ UAL4180 ✈ 17-Apr-2013 ✈ KEWR - KDAY

Flight Track Log - Related Links

Times and Time Zones

All times are in EDT time to prevent confusion due to time zone crossing. See the UAL4180 flight status page for this flight to view local times or setup timezone preferences in your user account.

Time Position Orientation Groundspeed Altitude Reporting Facility
EDT Latitude Longitude Course Direction KTS MPH feet Rate Location/Type
04:35PM 40.7167 -74.1500 276° West 167 192 1,400  Level New York TRACON
04:36PM 40.7500 -74.1500 360° North 217 250 3,200 2,100 Climbing New York TRACON
04:37PM 40.7667 -74.2500 282° West 253 291 5,600 2,700 Climbing New York TRACON
04:38PM 40.7459 -74.6548 277° West  Level FlightAware Approximate
04:38PM 40.7667 -74.3333 270° West 233 268 8,700  Level New York TRACON
04:39PM 40.7563 -74.7817 276° West  Level FlightAware Approximate
04:39PM 40.7833 -74.4167 285° West 262 302 10,300  Level New York TRACON
04:40PM 40.7661 -74.9087 276° West  Level FlightAware Approximate
04:41PM 40.8742 -74.6075 302° West 303 349 12,700  Level New York Center
04:42PM 40.8642 -74.7250 264° West 309 356 14,600 1,500 Climbing New York Center
04:43PM 40.8456 -74.8444 258° West 323 372 15,700 1,020 Climbing New York Center
04:44PM 40.8314 -74.9533 260° West 341 392 16,700 1,080 Climbing New York Center
04:45PM 40.8094 -75.0947 258° West 355 409 17,900 1,140 Climbing New York Center
04:46PM 40.7903 -75.2222 259° West 362 417 19,000 1,020 Climbing New York Center
04:47PM 40.7711 -75.3414 258° West 368 423 20,000 1,140 Climbing New York Center
04:48PM 40.7300 -75.4839 249° West 373 429 21,300 1,200 Climbing New York Center
04:49PM 40.6833 -75.6094 244° Southwest 380 437 22,500 1,200 Climbing New York Center
04:50PM 40.6386 -75.7319 244° Southwest 385 443 23,700 1,320 Climbing New York Center
04:51PM 40.5897 -75.8542 242° Southwest 391 450 25,100 1,140 Climbing New York Center
04:52PM 40.5431 -75.9656 241° Southwest 386 444 26,000 1,080 Climbing New York Center
04:53PM 40.4981 -76.0903 245° Southwest 386 444 27,300 960 Climbing New York Center
04:54PM 40.4508 -76.2094 243° Southwest 375 432 28,000 600 Climbing New York Center
04:55PM 40.4033 -76.3339 243° Southwest 375 432 28,600 900 Climbing New York Center
04:56PM 40.3561 -76.4528 243° Southwest 382 440 29,800 1,260 Climbing New York Center
04:57PM 40.3106 -76.5742 244° Southwest 382 440 31,100 1,260 Climbing New York Center
04:58PM 40.2611 -76.6897 241° Southwest 377 434 32,400 1,380 Climbing New York Center
04:59PM 40.2156 -76.8083 243° Southwest 377 434 33,900 1,440 Climbing New York Center
05:00PM 40.1719 -76.9214 243° Southwest 372 428 35,400 1,020 Climbing New York Center
05:01PM 40.1222 -77.0364 241° Southwest 354 407 36,000 300 Climbing New York Center
05:02PM 40.0764 -77.1517 243° Southwest 354 407 36,000  Level New York Center
05:04PM 39.9708 -77.4161 243° Southwest 388 447 36,000  Level Cleveland Center
05:05PM 39.9622 -77.5519 265° West 374 430 36,000  Level Cleveland Center
05:06PM 39.9656 -77.6847 272° West 374 430 36,000  Level Cleveland Center
05:07PM 39.9711 -77.8225 273° West 374 430 36,000  Level Cleveland Center
05:08PM 39.9744 -77.9581 272° West 374 430 36,000  Level Cleveland Center
05:09PM 39.9794 -78.0931 273° West 379 436 36,000  Level Cleveland Center
05:10PM 39.9825 -78.2339 272° West 384 442 36,000  Level Cleveland Center
05:11PM 39.9792 -78.3750 268° West 384 442 36,000  Level Cleveland Center
05:12PM 39.9836 -78.5103 272° West 384 442 36,000  Level Cleveland Center
05:13PM 39.9883 -78.6592 272° West 384 442 36,000  Level Cleveland Center
05:14PM 39.9947 -78.7972 274° West 379 436 36,000  Level Cleveland Center
05:15PM 40.0031 -78.9297 275° West 379 436 36,000  Level Cleveland Center
05:16PM 40.0133 -79.0650 276° West 384 442 36,000  Level Cleveland Center
05:17PM 40.0214 -79.2033 274° West 384 442 36,000  Level Cleveland Center
05:18PM 40.0292 -79.3414 274° West 384 442 36,000  Level Cleveland Center
05:19PM 40.0369 -79.4794 274° West 384 442 36,000  Level Cleveland Center
05:20PM 40.0422 -79.6203 273° West 384 442 36,000  Level Cleveland Center
05:21PM 40.0494 -79.7558 274° West 384 442 36,000  Level Cleveland Center
05:22PM 40.0567 -79.8969 274° West 384 442 36,000  Level Cleveland Center
05:23PM 40.0617 -80.0350 273° West 384 442 36,000  Level Cleveland Center
05:24PM 40.0706 -80.1789 275° West 389 448 36,000  Level Cleveland Center
05:25PM 40.0731 -80.3200 271° West 389 448 36,000  Level Cleveland Center
05:26PM 40.0817 -80.4475 275° West 389 448 36,000  Level Cleveland Center
05:27PM 40.0881 -80.5911 273° West 395 455 36,000  Level Cleveland Center
05:28PM 40.0942 -80.7378 273° West 400 460 36,000 -540 Level Cleveland Center
05:29PM 40.1000 -80.8817 273° West 400 460 35,000 -1,020 Descending Cleveland Center
05:30PM 40.1039 -81.0308 272° West 405 466 34,000 -540 Descending Cleveland Center
05:31PM 40.1094 -81.1775 273° West 405 466 34,000 -360 Level Cleveland Center
05:32PM 40.1142 -81.3400 272° West 411 473 33,300 -840 Descending Indianapolis Center
05:33PM 40.1192 -81.4894 273° West 409 471 32,300 -1,020 Descending Indianapolis Center
05:34PM 40.1242 -81.6436 272° West 418 481 31,200 -1,140 Descending Indianapolis Center
05:35PM 40.1294 -81.8078 272° West 412 474 30,000 -1,140 Descending Indianapolis Center
05:36PM 40.1339 -81.9594 272° West 414 476 28,900 -1,020 Descending Indianapolis Center
05:37PM 40.1375 -82.1092 272° West 409 471 27,900 -1,020 Descending Indianapolis Center
05:38PM 40.1425 -82.2578 273° West 406 467 26,800 -1,080 Descending Indianapolis Center
05:39PM 40.1464 -82.4069 272° West 408 470 25,700 -1,140 Descending Indianapolis Center
05:40PM 40.1519 -82.5836 272° West 414 476 24,500 -1,320 Descending Indianapolis Center
05:41PM 40.1589 -82.7331 274° West 409 471 23,100 -1,500 Descending Indianapolis Center
05:42PM 40.1667 -82.8758 274° West 394 453 21,500 -1,620 Descending Indianapolis Center
05:43PM 40.1733 -83.0167 274° West 386 444 19,800 -1,860 Descending Indianapolis Center
05:44PM 40.1797 -83.1544 274° West 381 438 17,700 -1,980 Descending Indianapolis Center
05:45PM 40.1867 -83.2922 274° West 380 437 15,800 -2,100 Descending Indianapolis Center
05:46PM 40.1906 -83.3683 274° West 375 432 14,600 -2,160 Descending Indianapolis Center
05:46PM 40.1939 -83.4269 274° West 373 429 13,600 -2,160 Descending Indianapolis Center
05:47PM 40.1967 -83.5167 272° West 369 425 12,200 -2,340 Descending Indianapolis Center
05:48PM 40.2008 -83.5817 275° West 364 419 11,200 -1,200 Descending Indianapolis Center
05:48PM 40.2036 -83.6514 273° West 355 409 11,000 -540 Descending Indianapolis Center
05:49PM 40.1978 -83.7097 263° West 357 411 10,700 -840 Descending Indianapolis Center
05:49PM 40.1828 -83.7906 256° West 348 400 10,100 -780 Descending Indianapolis Center
05:50PM 40.1769 -83.8314 259° West 343 395 9,900 -120 Descending Indianapolis Center
05:50PM 40.1639 -83.9031 257° West 343 395 10,000  Climbing Indianapolis Center
05:51PM 40.1558 -83.9550 259° West 345 397 9,900  Descending Indianapolis Center
05:51PM 40.1408 -84.0392 257° West 348 400 10,000  Climbing Indianapolis Center
05:52PM 40.1347 -84.0792 259° West 347 399 9,900  Descending Indianapolis Center
05:52PM 40.1217 -84.1514 257° West 347 399 10,000  Climbing Indianapolis Center
05:53PM 40.1042 -84.1908 240° Southwest 333 383 9,900 -540 Descending Indianapolis Center
05:53PM 40.0792 -84.2383 235° Southwest 256 295 9,500 -1,560 Descending Indianapolis Center
05:54PM 40.0567 -84.2858 238° Southwest 282 325 8,300 -1,980 Descending Indianapolis Center
05:54PM 40.0397 -84.3150 233° Southwest 243 280 7,500 -1,860 Descending Indianapolis Center
05:55PM 40.0172 -84.3614 238° Southwest 263 303 6,400 -1,500 Descending Indianapolis Center
05:55PM 40.0022 -84.3889 235° Southwest 244 281 6,000 -600 Descending Indianapolis Center
05:56PM 39.9836 -84.4292 239° Southwest 237 273 5,800 -900 Descending Indianapolis Center
05:56PM 39.9675 -84.4578 234° Southwest 206 237 5,100 -1,500 Descending Indianapolis Center
05:57PM 39.9447 -84.4828 220° Southwest 220 253 4,300 -1,140 Descending Indianapolis Center
05:57PM 39.9197 -84.4786 173° South 205 236 4,000 -480 Descending Indianapolis Center
05:58PM 39.8861 -84.4728 172° South 212 244 3,800 -600 Descending Indianapolis Center
05:58PM 39.8647 -84.4575 151° Southeast 207 238 3,400 -900 Descending Indianapolis Center
05:59PM 39.8389 -84.4289 140° Southeast 211 243 2,900 -540 Descending Indianapolis Center
05:59PM 39.8339 -84.3989 102° East 206 237 2,900 -300 Level Indianapolis Center
06:00PM 39.8394 -84.3542 81° East 208 239 2,600 -360 Descending Indianapolis Center
06:00PM 39.8547 -84.3200 60° Northeast 202 232 2,500 -300 Descending Indianapolis Center